Time;durP1;ratioP1;P1;durP2;ratioP2;P2;SDS_P1;SDS_P2;PMS_P1;PMS_P2;Temp;Humidity;BMP_temperature;BMP_pressure;BME280_temperature;BME280_humidity;BME280_pressure;Samples;Min_cycle;Max_cycle;Signal;HPM_P1;HPM_P2
2022/06/21 00:00:36;;;;;;;7.35;4.70;;;16.20;99.30;;;;;;5005495;28;19921;-89
2022/06/21 00:03:06;;;;;;;7.18;4.97;;;16.20;99.30;;;;;;4990895;28;20034;-87
2022/06/21 00:05:35;;;;;;;6.97;4.85;;;16.40;99.30;;;;;;4984683;28;20027;-87
2022/06/21 00:08:04;;;;;;;7.55;4.75;;;16.20;99.30;;;;;;4987157;28;20038;-86
2022/06/21 00:10:34;;;;;;;7.78;5.35;;;16.20;99.50;;;;;;4992436;28;20090;-87
2022/06/21 00:13:08;;;;;;;8.32;4.75;;;16.10;99.80;;;;;;4986771;28;20113;-86
2022/06/21 00:15:33;;;;;;;7.18;5.10;;;16.00;99.90;;;;;;4986492;28;20022;-86
2022/06/21 00:18:02;;;;;;;7.78;5.32;;;15.90;99.90;;;;;;4985457;28;20058;-88
2022/06/21 00:20:28;;;;;;;8.27;5.50;;;15.80;99.90;;;;;;4984584;28;20031;-87
2022/06/21 00:22:54;;;;;;;7.78;5.30;;;16.00;99.90;;;;;;4976462;28;20042;-87
2022/06/21 00:25:25;;;;;;;7.50;5.40;;;15.70;99.90;;;;;;4987282;28;20245;-87
2022/06/21 00:27:53;;;;;;;8.15;5.65;;;15.80;99.90;;;;;;4985507;28;20022;-88
2022/06/21 00:30:20;;;;;;;11.75;5.40;;;15.80;99.90;;;;;;4982932;28;20027;-88
2022/06/21 00:32:53;;;;;;;7.68;5.43;;;15.80;99.90;;;;;;4986512;28;20030;-88
2022/06/21 00:35:23;;;;;;;8.85;5.35;;;15.80;99.90;;;;;;4990412;28;20022;-87
2022/06/21 00:37:50;;;;;;;8.07;5.50;;;15.70;99.90;;;;;;5002647;28;20473;-86
2022/06/21 00:40:28;;;;;;;8.15;5.13;;;15.70;99.90;;;;;;4999675;28;20029;-87
2022/06/21 00:43:02;;;;;;;6.80;5.38;;;15.60;99.90;;;;;;4979198;28;20031;-85
2022/06/21 00:45:41;;;;;;;9.63;5.15;;;15.60;99.90;;;;;;5000262;28;20033;-86
2022/06/21 00:48:24;;;;;;;9.15;5.55;;;15.60;99.90;;;;;;4990551;28;20030;-87
2022/06/21 00:51:06;;;;;;;8.90;5.40;;;15.60;99.90;;;;;;4996782;28;20038;-86
2022/06/21 00:53:37;;;;;;;6.40;4.97;;;15.60;99.90;;;;;;4995356;28;20019;-87
2022/06/21 00:56:11;;;;;;;9.85;5.47;;;15.50;99.90;;;;;;5017104;28;20034;-87
2022/06/21 00:58:36;;;;;;;7.60;5.53;;;15.50;99.90;;;;;;5008764;28;20039;-87
2022/06/21 01:01:22;;;;;;;6.95;5.60;;;15.40;99.90;;;;;;4997762;28;20014;-87
2022/06/21 01:03:52;;;;;;;10.00;5.90;;;15.40;99.90;;;;;;5011367;28;20019;-86
2022/06/21 01:06:33;;;;;;;6.95;5.15;;;15.30;99.90;;;;;;5018564;28;20093;-86
2022/06/21 01:09:08;;;;;;;10.18;5.90;;;15.60;99.90;;;;;;5016319;28;20098;-86
2022/06/21 01:11:52;;;;;;;7.47;5.82;;;15.30;99.90;;;;;;5013773;28;20026;-88
2022/06/21 01:14:22;;;;;;;13.57;6.20;;;15.30;99.90;;;;;;5000452;28;20034;-88
2022/06/21 01:16:48;;;;;;;;;;;15.40;99.90;;;;;;5001069;28;20019;-88
2022/06/21 01:19:26;;;;;;;9.52;6.60;;;15.30;99.90;;;;;;5017364;28;19925;-88
2022/06/21 01:21:59;;;;;;;9.50;7.53;;;15.90;99.90;;;;;;4992644;28;20054;-87
2022/06/21 01:24:52;;;;;;;13.48;9.15;;;15.10;99.90;;;;;;5000209;28;20030;-85
2022/06/21 01:27:18;;;;;;;14.98;9.13;;;15.10;99.90;;;;;;5010453;28;20025;-84
2022/06/21 01:29:45;;;;;;;13.23;8.65;;;15.00;99.90;;;;;;5004119;28;20022;-88
2022/06/21 01:32:11;;;;;;;12.35;9.40;;;15.00;99.90;;;;;;4999163;28;20041;-86
2022/06/21 01:34:36;;;;;;;9.63;8.13;;;15.00;99.90;;;;;;4993730;28;20042;-86
2022/06/21 01:37:12;;;;;;;10.13;7.38;;;15.00;99.90;;;;;;4997264;28;20034;-87
2022/06/21 01:40:01;;;;;;;10.80;7.53;;;14.80;99.90;;;;;;4994066;28;20046;-85
2022/06/21 01:42:39;;;;;;;10.27;7.63;;;14.90;99.90;;;;;;5007349;28;20041;-89
2022/06/21 01:45:09;;;;;;;10.02;7.03;;;14.80;99.90;;;;;;4992753;28;20042;-85
2022/06/21 01:47:50;;;;;;;7.85;7.05;;;14.80;99.90;;;;;;4996507;28;20014;-86
2022/06/21 01:50:16;;;;;;;;;;;14.80;99.90;;;;;;4997214;28;20083;-86
2022/06/21 01:52:44;;;;;;;13.38;7.10;;;14.80;99.90;;;;;;4990978;28;20388;-86
2022/06/21 01:55:19;;;;;;;9.85;7.00;;;14.80;99.90;;;;;;4998749;28;20053;-88
2022/06/21 01:57:47;;;;;;;9.52;7.95;;;14.70;99.90;;;;;;4984350;28;20030;-86
2022/06/21 02:00:14;;;;;;;10.90;8.18;;;14.80;99.90;;;;;;4984410;28;20038;-87
2022/06/21 02:02:51;;;;;;;12.65;9.18;;;14.70;99.90;;;;;;4998214;28;20026;-83
2022/06/21 02:05:25;;;;;;;11.68;9.40;;;14.60;99.90;;;;;;4987693;28;20031;-83
2022/06/21 02:07:56;;;;;;;11.05;9.52;;;14.60;99.90;;;;;;4993649;28;20038;-83
2022/06/21 02:11:00;;;;;;;13.32;9.75;;;14.60;99.90;;;;;;4993863;28;20062;-83
2022/06/21 02:13:34;;;;;;;13.68;9.60;;;14.60;99.90;;;;;;4982595;28;20031;-86
2022/06/21 02:16:02;;;;;;;16.65;9.88;;;14.50;99.90;;;;;;4993763;28;20015;-88
2022/06/21 02:18:30;;;;;;;13.70;8.90;;;14.50;99.90;;;;;;5003855;28;20132;-82
2022/06/21 02:21:21;;;;;;;12.57;8.50;;;14.50;99.90;;;;;;4985651;28;20038;-83
2022/06/21 02:23:52;;;;;;;12.40;9.25;;;14.50;99.90;;;;;;4980613;28;20093;-86
2022/06/21 02:26:19;;;;;;;12.98;9.25;;;14.50;99.90;;;;;;4980065;28;20030;-86
2022/06/21 02:28:46;;;;;;;10.93;9.68;;;14.50;99.90;;;;;;4995994;28;20054;-87
2022/06/21 02:31:12;;;;;;;12.45;8.98;;;14.60;99.90;;;;;;4980330;28;20030;-86
2022/06/21 02:33:40;;;;;;;9.02;8.10;;;14.50;99.90;;;;;;4981185;28;20329;-85
2022/06/21 02:36:15;;;;;;;10.48;9.10;;;14.40;99.90;;;;;;4978593;28;20031;-87
2022/06/21 02:38:54;;;;;;;13.75;9.70;;;14.40;99.90;;;;;;4959204;28;20042;-84
2022/06/21 02:41:43;;;;;;;11.27;9.30;;;14.30;99.90;;;;;;4982360;28;20031;-87
2022/06/21 02:44:24;;;;;;;13.77;9.98;;;14.30;99.90;;;;;;4977421;28;20058;-87
2022/06/21 02:47:12;;;;;;;13.30;9.48;;;14.30;99.90;;;;;;4976499;28;20058;-86
2022/06/21 02:49:45;;;;;;;10.27;8.90;;;14.40;99.90;;;;;;4974821;28;20031;-85
2022/06/21 02:52:17;;;;;;;11.45;9.20;;;14.40;99.90;;;;;;5000344;28;20086;-86
2022/06/21 02:54:55;;;;;;;14.07;9.23;;;14.40;99.90;;;;;;4981142;28;20485;-88
2022/06/21 02:57:30;;;;;;;16.10;9.73;;;14.30;99.90;;;;;;4982640;28;20054;-84
2022/06/21 02:59:57;;;;;;;14.57;9.95;;;14.30;99.90;;;;;;4981413;28;20031;-86
2022/06/21 03:02:28;;;;;;;12.27;10.57;;;14.30;99.90;;;;;;4982167;28;20027;-88
2022/06/21 03:05:04;;;;;;;14.52;10.10;;;14.10;99.90;;;;;;4982147;28;20103;-85
2022/06/21 03:07:33;;;;;;;13.68;11.25;;;14.20;99.90;;;;;;4997025;28;20026;-86
2022/06/21 03:09:59;;;;;;;16.27;11.05;;;14.10;99.90;;;;;;4993202;28;20030;-86
2022/06/21 03:12:29;;;;;;;14.95;10.93;;;14.10;99.90;;;;;;4981686;28;20026;-86
2022/06/21 03:14:58;;;;;;;15.60;11.45;;;14.20;99.90;;;;;;4998761;28;20511;-87
2022/06/21 03:17:33;;;;;;;13.82;11.15;;;14.20;99.90;;;;;;5007398;28;20046;-84
2022/06/21 03:19:58;;;;;;;16.35;11.13;;;14.20;99.90;;;;;;4995925;28;20038;-85
2022/06/21 03:22:31;;;;;;;14.88;11.13;;;14.20;99.90;;;;;;4992578;28;20038;-83
2022/06/21 03:24:59;;;;;;;14.77;11.32;;;14.20;99.90;;;;;;4986355;28;20046;-87
2022/06/21 03:27:31;;;;;;;15.43;11.35;;;14.20;99.90;;;;;;4979949;28;20468;-86
2022/06/21 03:29:59;;;;;;;15.38;11.80;;;14.00;99.90;;;;;;4980172;28;20026;-87
2022/06/21 03:32:28;;;;;;;12.95;11.07;;;14.10;99.90;;;;;;4981360;28;20034;-84
2022/06/21 03:34:54;;;;;;;12.05;10.75;;;14.00;99.90;;;;;;4981097;28;20019;-85
2022/06/21 03:37:20;;;;;;;12.77;10.85;;;13.60;99.90;;;;;;4986877;28;20081;-86
2022/06/21 03:42:36;;;;;;;14.85;11.07;;;14.00;99.90;;;;;;4985233;28;20115;-87
2022/06/21 03:45:05;;;;;;;13.80;10.73;;;14.00;99.90;;;;;;4997285;28;20046;-88
2022/06/21 03:47:37;;;;;;;12.43;10.57;;;14.10;99.90;;;;;;4985046;28;20979;-87
2022/06/21 03:50:12;;;;;;;13.43;9.95;;;14.00;99.90;;;;;;4982470;28;20030;-86
2022/06/21 03:52:58;;;;;;;15.43;11.02;;;14.20;99.90;;;;;;4998780;28;20061;-85
2022/06/21 03:55:36;;;;;;;11.90;9.65;;;14.20;99.90;;;;;;4984385;28;20404;-86
2022/06/21 03:58:09;;;;;;;12.73;10.32;;;14.20;99.90;;;;;;4991525;28;20031;-84
2022/06/21 04:01:18;;;;;;;11.15;9.07;;;14.20;99.90;;;;;;4979448;28;20035;-87
2022/06/21 04:04:14;;;;;;;10.82;9.65;;;14.20;99.90;;;;;;4942037;28;20408;-86
2022/06/21 04:06:49;;;;;;;13.50;9.63;;;14.30;99.90;;;;;;4975018;28;20034;-87
2022/06/21 04:09:24;;;;;;;14.05;10.00;;;14.30;99.90;;;;;;4975068;28;20504;-88
2022/06/21 04:12:14;;;;;;;12.02;9.77;;;14.40;99.90;;;;;;5035624;23;20042;-82
2022/06/21 04:14:47;;;;;;;13.98;9.82;;;14.30;99.90;;;;;;5020091;28;20030;-84
2022/06/21 04:17:29;;;;;;;12.15;9.80;;;14.40;99.90;;;;;;5014886;28;20262;-84
2022/06/21 04:20:01;;;;;;;13.65;9.50;;;14.40;99.90;;;;;;5016802;28;20061;-83
2022/06/21 04:22:29;;;;;;;14.13;9.02;;;14.50;99.90;;;;;;5009441;28;20497;-82
2022/06/21 04:25:09;;;;;;;11.30;8.73;;;14.50;99.90;;;;;;5013163;28;20410;-85
2022/06/21 04:27:46;;;;;;;17.35;8.88;;;14.60;99.90;;;;;;5018173;28;20033;-84
2022/06/21 04:30:30;;;;;;;10.50;7.88;;;14.60;99.90;;;;;;5010768;28;20029;-85
2022/06/21 04:33:10;;;;;;;9.13;7.90;;;14.80;99.90;;;;;;5020345;28;20030;-85
2022/06/21 04:35:41;;;;;;;10.07;7.53;;;14.70;99.90;;;;;;5029729;28;20033;-85
2022/06/21 04:38:13;;;;;;;12.65;7.60;;;14.80;99.90;;;;;;5014443;28;20049;-86
2022/06/21 04:41:02;;;;;;;10.88;6.57;;;14.90;99.90;;;;;;5028453;28;20429;-85
2022/06/21 04:43:40;;;;;;;7.95;6.60;;;15.10;99.90;;;;;;5031598;28;20026;-86
2022/06/21 04:46:13;;;;;;;9.55;6.13;;;15.20;99.90;;;;;;5030130;28;20021;-87
2022/06/21 04:48:59;;;;;;;6.82;5.60;;;15.30;99.90;;;;;;5023889;28;20026;-85
2022/06/21 04:51:51;;;;;;;9.13;5.30;;;15.40;99.90;;;;;;5027363;28;20084;-85
2022/06/21 04:54:24;;;;;;;10.73;6.22;;;15.50;99.90;;;;;;5024294;28;20057;-85
2022/06/21 04:57:07;;;;;;;6.15;4.60;;;15.50;99.90;;;;;;5036702;28;20026;-86
2022/06/21 04:59:46;;;;;;;6.60;5.38;;;15.40;99.90;;;;;;5021688;28;20052;-86
2022/06/21 05:02:20;;;;;;;7.00;4.70;;;15.50;99.90;;;;;;5038358;28;20071;-86
2022/06/21 05:04:50;;;;;;;9.93;4.82;;;15.50;99.90;;;;;;5022382;28;20018;-85
2022/06/21 05:07:21;;;;;;;4.88;3.85;;;15.60;99.90;;;;;;5029095;28;20030;-81
2022/06/21 05:09:49;;;;;;;6.20;4.10;;;15.40;99.90;;;;;;5027489;28;20044;-84
2022/06/21 05:12:22;;;;;;;5.65;3.92;;;15.50;99.90;;;;;;5029889;28;20068;-83
2022/06/21 05:14:52;;;;;;;7.15;4.03;;;15.40;99.90;;;;;;5018363;28;20057;-83
2022/06/21 05:17:19;;;;;;;6.03;4.00;;;15.30;99.90;;;;;;5015034;28;20114;-84
2022/06/21 05:19:52;;;;;;;6.22;3.97;;;15.50;99.90;;;;;;5014426;28;20034;-82
2022/06/21 05:22:28;;;;;;;5.53;4.07;;;15.50;99.90;;;;;;5018784;28;20117;-84
2022/06/21 05:24:59;;;;;;;9.73;3.92;;;15.60;99.90;;;;;;5016286;28;20029;-82
2022/06/21 05:27:41;;;;;;;8.70;3.88;;;15.60;99.90;;;;;;5023705;28;20073;-85
2022/06/21 05:30:34;;;;;;;6.35;3.70;;;15.80;99.90;;;;;;5018180;28;20050;-83
2022/06/21 05:33:16;;;;;;;6.90;3.78;;;16.00;99.90;;;;;;5020620;28;20011;-85
2022/06/21 05:35:43;;;;;;;5.00;3.45;;;16.20;99.90;;;;;;5022831;28;20073;-85
2022/06/21 05:38:21;;;;;;;7.40;3.50;;;16.30;99.90;;;;;;5018609;28;20030;-83
2022/06/21 05:40:59;;;;;;;4.75;3.05;;;16.60;99.90;;;;;;5016879;28;20033;-87
2022/06/21 05:43:39;;;;;;;8.27;3.35;;;17.10;99.90;;;;;;5021476;28;20033;-86
2022/06/21 05:46:19;;;;;;;5.72;2.95;;;17.60;99.80;;;;;;5017361;28;20097;-85
2022/06/21 05:48:45;;;;;;;6.00;3.33;;;17.90;99.10;;;;;;5019109;28;20193;-85
2022/06/21 05:51:28;;;;;;;6.03;3.42;;;18.20;98.60;;;;;;5022491;28;20061;-84
2022/06/21 05:54:00;;;;;;;6.78;3.40;;;18.10;98.70;;;;;;5032690;28;20033;-85
2022/06/21 05:56:28;;;;;;;6.15;3.65;;;17.80;99.20;;;;;;5012275;28;20118;-85
2022/06/21 05:58:57;;;;;;;6.63;3.58;;;17.60;99.30;;;;;;5011992;28;20026;-84
2022/06/21 06:01:33;;;;;;;8.33;3.73;;;17.40;99.80;;;;;;5008135;28;20030;-85
2022/06/21 06:04:31;;;;;;;5.85;3.78;;;17.20;99.90;;;;;;5019057;28;20028;-83
2022/06/21 06:06:59;;;;;;;8.77;3.88;;;17.20;99.90;;;;;;5019487;28;20058;-84
2022/06/21 06:09:34;;;;;;;10.20;4.25;;;17.00;99.90;;;;;;5020723;28;20041;-85
2022/06/21 06:12:21;;;;;;;10.20;4.70;;;16.80;99.90;;;;;;5011850;28;20034;-87
2022/06/21 06:15:03;;;;;;;7.85;3.85;;;16.70;99.90;;;;;;5011780;28;20125;-85
2022/06/21 06:17:49;;;;;;;6.30;3.90;;;16.60;99.90;;;;;;5017983;28;20029;-84
2022/06/21 06:20:20;;;;;;;6.82;3.50;;;16.40;99.90;;;;;;5008622;28;20077;-84
2022/06/21 06:22:55;;;;;;;9.25;3.90;;;16.50;99.90;;;;;;5022454;28;20026;-84
2022/06/21 06:25:54;;;;;;;6.55;3.30;;;16.60;99.90;;;;;;5033883;28;20030;-84
2022/06/21 06:28:40;;;;;;;5.60;3.40;;;16.00;99.90;;;;;;5019524;28;20119;-79
2022/06/21 06:31:12;;;;;;;9.07;3.60;;;16.30;99.90;;;;;;5033452;28;20045;-84
2022/06/21 06:33:41;;;;;;;5.68;3.90;;;15.90;99.90;;;;;;5016679;28;20029;-85
2022/06/21 06:36:14;;;;;;;6.70;4.70;;;15.70;99.90;;;;;;5013747;28;20121;-82
2022/06/21 06:38:41;;;;;;;5.97;4.22;;;15.50;99.90;;;;;;5014664;28;20497;-83
2022/06/21 06:41:31;;;;;;;6.97;5.00;;;15.40;99.90;;;;;;5014154;28;20026;-86
2022/06/21 06:44:01;;;;;;;8.40;5.28;;;15.30;99.90;;;;;;5011468;28;20030;-86
2022/06/21 06:46:34;;;;;;;8.52;5.35;;;15.30;99.90;;;;;;5014339;28;20045;-84
2022/06/21 06:49:19;;;;;;;8.77;4.80;;;15.30;99.90;;;;;;5023286;28;20026;-83
2022/06/21 06:51:58;;;;;;;7.82;4.30;;;15.30;99.90;;;;;;5017608;28;20034;-83
2022/06/21 06:54:31;;;;;;;6.13;3.15;;;15.40;99.90;;;;;;5017141;28;20418;-84
2022/06/21 06:57:08;;;;;;;6.35;3.40;;;15.50;99.90;;;;;;5016844;28;20018;-84
2022/06/21 06:59:35;;;;;;;5.55;3.67;;;15.70;99.90;;;;;;5017211;28;20045;-82
2022/06/21 07:02:24;;;;;;;6.53;3.03;;;16.00;99.90;;;;;;5018028;28;20022;-83
2022/06/21 07:05:02;;;;;;;5.32;3.20;;;16.30;99.90;;;;;;5014454;28;20068;-79
2022/06/21 07:07:37;;;;;;;6.65;2.85;;;16.60;99.90;;;;;;5014131;28;20022;-82
2022/06/21 07:10:10;;;;;;;5.20;3.10;;;16.90;99.90;;;;;;5008779;28;21543;-79
2022/06/21 07:12:35;;;;;;;6.00;3.35;;;17.10;99.90;;;;;;5013831;28;20077;-83
2022/06/21 07:15:02;;;;;;;8.93;3.22;;;17.40;99.90;;;;;;5015868;28;20026;-86
2022/06/21 07:17:49;;;;;;;4.75;2.50;;;17.50;99.90;;;;;;5009917;28;20092;-82
2022/06/21 07:20:36;;;;;;;5.43;2.70;;;17.70;99.90;;;;;;5014349;28;20034;-83
2022/06/21 07:23:03;;;;;;;6.20;2.67;;;17.80;99.90;;;;;;5015811;28;20040;-82
2022/06/21 07:25:41;;;;;;;6.07;2.90;;;17.90;99.90;;;;;;5008780;28;20029;-84
2022/06/21 07:28:21;;;;;;;5.55;2.60;;;17.80;99.90;;;;;;5012697;28;20049;-83
2022/06/21 07:30:53;;;;;;;6.82;3.30;;;17.90;99.90;;;;;;5017127;28;20114;-82
2022/06/21 07:33:29;;;;;;;4.38;2.63;;;17.80;99.90;;;;;;5016000;28;20065;-84
2022/06/21 07:36:02;;;;;;;5.50;2.67;;;17.80;99.90;;;;;;5016009;28;20075;-85
2022/06/21 07:38:53;;;;;;;5.72;2.88;;;17.90;99.90;;;;;;5018829;28;20130;-81
2022/06/21 07:41:30;;;;;;;5.30;3.25;;;17.90;99.90;;;;;;5021193;28;20290;-81
2022/06/21 07:44:07;;;;;;;6.38;2.72;;;18.00;99.90;;;;;;5021731;28;20090;-84
2022/06/21 07:46:40;;;;;;;8.25;3.03;;;18.10;99.90;;;;;;5005411;28;20022;-83
2022/06/21 07:49:18;;;;;;;9.00;2.92;;;18.30;99.90;;;;;;5021563;28;20026;-85
2022/06/21 07:51:49;;;;;;;5.65;3.00;;;18.40;99.90;;;;;;5010774;28;20040;-85
2022/06/21 07:54:24;;;;;;;5.45;2.47;;;18.60;99.90;;;;;;5017602;28;20041;-85
2022/06/21 07:57:13;;;;;;;7.28;2.55;;;18.70;99.60;;;;;;5012689;28;20120;-84
2022/06/21 07:59:43;;;;;;;6.82;2.22;;;18.90;99.40;;;;;;5016792;28;20044;-86
2022/06/21 08:08:21;;;;;;;5.95;2.40;;;19.40;97.90;;;;;;5036799;28;20512;-84
2022/06/21 08:10:54;;;;;;;4.45;2.53;;;19.60;96.90;;;;;;5020905;28;20034;-81
2022/06/21 08:13:20;;;;;;;7.22;2.45;;;19.80;97.30;;;;;;5021549;28;20458;-85
2022/06/21 08:15:57;;;;;;;5.32;2.30;;;19.90;97.10;;;;;;5016955;28;20057;-84
2022/06/21 08:18:34;;;;;;;4.55;2.00;;;19.90;96.80;;;;;;5022635;28;20041;-83
2022/06/21 08:21:16;;;;;;;4.75;2.33;;;20.00;96.10;;;;;;5036052;28;20061;-81
2022/06/21 08:23:52;;;;;;;5.00;2.55;;;20.00;96.20;;;;;;5018346;28;20046;-85
2022/06/21 08:26:27;;;;;;;4.22;2.10;;;20.10;95.90;;;;;;5018629;28;20022;-84
2022/06/21 08:29:00;;;;;;;4.60;1.90;;;20.30;95.90;;;;;;5019048;28;20026;-81
2022/06/21 08:31:44;;;;;;;5.18;2.05;;;20.60;95.10;;;;;;5017083;28;20065;-83
2022/06/21 08:34:19;;;;;;;5.38;2.70;;;20.80;94.80;;;;;;5010853;28;20029;-82
2022/06/21 08:36:52;;;;;;;4.55;1.80;;;21.20;94.40;;;;;;5017645;28;20493;-84
2022/06/21 08:39:38;;;;;;;6.38;2.45;;;21.40;93.40;;;;;;5014559;28;20061;-84
2022/06/21 08:42:38;;;;;;;4.13;1.90;;;21.70;92.90;;;;;;5019637;28;20030;-84
2022/06/21 08:45:41;;;;;;;4.75;2.10;;;21.70;92.90;;;;;;5025787;28;20018;-85
2022/06/21 08:48:26;;;;;;;4.07;2.00;;;21.70;92.70;;;;;;5017486;28;20034;-83
2022/06/21 08:51:06;;;;;;;3.53;1.98;;;21.80;92.10;;;;;;5018847;28;20036;-84
2022/06/21 08:54:00;;;;;;;4.60;2.00;;;21.90;91.50;;;;;;5022031;28;20058;-84
2022/06/21 08:56:40;;;;;;;4.85;2.10;;;21.80;91.30;;;;;;5016182;28;20486;-85
2022/06/21 08:59:43;;;;;;;4.40;2.28;;;21.90;91.30;;;;;;5020887;28;20026;-82
2022/06/21 09:02:38;;;;;;;4.03;2.67;;;22.00;91.20;;;;;;5034864;28;20026;-85
2022/06/21 09:05:10;;;;;;;4.50;2.20;;;22.10;91.40;;;;;;5021198;28;20026;-86
2022/06/21 09:08:14;;;;;;;7.60;2.10;;;22.00;91.00;;;;;;5033082;28;20036;-84
2022/06/21 09:11:12;;;;;;;6.05;2.42;;;22.00;91.40;;;;;;5013719;28;20165;-86
2022/06/21 09:13:49;;;;;;;5.25;1.92;;;22.10;91.60;;;;;;5028171;28;20026;-82
2022/06/21 09:16:24;;;;;;;5.30;1.98;;;22.40;90.90;;;;;;5013366;28;20026;-79
2022/06/21 09:19:18;;;;;;;4.15;1.80;;;22.30;90.50;;;;;;5019091;28;20515;-82
2022/06/21 09:21:56;;;;;;;4.10;1.80;;;22.50;90.40;;;;;;5009197;28;20042;-84
2022/06/21 09:24:36;;;;;;;4.63;2.10;;;22.50;90.00;;;;;;5009081;28;20057;-84
2022/06/21 09:27:27;;;;;;;3.15;1.90;;;22.70;90.20;;;;;;5006991;28;20030;-83
2022/06/21 09:30:11;;;;;;;4.03;1.88;;;22.80;90.00;;;;;;5011758;28;20049;-82
2022/06/21 09:33:03;;;;;;;6.25;1.88;;;22.90;90.00;;;;;;5016548;28;20029;-82
2022/06/21 09:36:05;;;;;;;6.50;2.30;;;23.10;88.10;;;;;;5031390;28;20090;-80
2022/06/21 09:38:49;;;;;;;6.00;2.10;;;23.20;88.60;;;;;;5020022;28;20117;-84
2022/06/21 09:41:31;;;;;;;4.80;2.08;;;22.90;87.70;;;;;;5013816;28;20069;-81
2022/06/21 09:44:00;;;;;;;7.07;2.08;;;23.30;88.10;;;;;;5012557;28;20018;-82
2022/06/21 09:46:44;;;;;;;5.75;2.10;;;23.00;88.00;;;;;;5014925;28;20022;-84
2022/06/21 09:49:40;;;;;;;6.97;2.03;;;23.10;88.70;;;;;;5017596;28;20100;-85
2022/06/21 09:52:37;;;;;;;4.47;1.90;;;23.20;88.00;;;;;;5016452;28;20035;-85
2022/06/21 09:55:33;;;;;;;3.38;1.90;;;23.40;87.20;;;;;;5016599;28;20033;-86
2022/06/21 09:58:14;;;;;;;4.72;2.00;;;23.60;87.10;;;;;;5013366;28;20072;-88
2022/06/21 10:00:50;;;;;;;5.35;2.10;;;23.60;86.80;;;;;;5015427;28;20026;-83
2022/06/21 10:03:27;;;;;;;5.25;2.38;;;23.70;86.40;;;;;;5012877;28;20026;-85
2022/06/21 10:06:06;;;;;;;6.30;2.45;;;23.80;86.70;;;;;;5017787;28;20022;-83
2022/06/21 10:08:46;;;;;;;4.88;2.17;;;23.80;86.20;;;;;;5008793;28;20498;-84
2022/06/21 10:11:17;;;;;;;4.45;2.05;;;23.90;86.30;;;;;;5014263;28;20053;-85
2022/06/21 10:14:26;;;;;;;3.47;2.17;;;24.20;86.50;;;;;;5045732;28;20049;-81
2022/06/21 10:17:29;;;;;;;4.32;2.22;;;24.30;85.10;;;;;;5006197;28;20129;-82
2022/06/21 10:20:30;;;;;;;5.15;2.10;;;24.60;84.80;;;;;;5010725;28;20034;-83
2022/06/21 10:23:22;;;;;;;4.75;2.47;;;24.70;84.20;;;;;;5011945;28;20093;-86
2022/06/21 10:26:23;;;;;;;5.95;2.47;;;24.60;83.20;;;;;;5010465;28;20018;-82
2022/06/21 10:29:03;;;;;;;6.38;2.10;;;24.90;83.70;;;;;;4999697;28;20030;-83
2022/06/21 10:31:41;;;;;;;5.53;2.15;;;25.00;83.10;;;;;;5015671;28;20068;-81
2022/06/21 10:34:20;;;;;;;5.03;2.20;;;25.20;83.00;;;;;;5019643;28;20395;-83
2022/06/21 10:37:06;;;;;;;4.70;2.30;;;25.20;82.30;;;;;;5013552;28;20022;-81
2022/06/21 10:40:05;;;;;;;5.70;2.08;;;25.30;82.40;;;;;;5016771;28;20080;-81
2022/06/21 10:42:49;;;;;;;3.97;2.00;;;25.50;82.40;;;;;;5013172;28;20034;-81
2022/06/21 10:45:54;;;;;;;3.85;2.03;;;25.70;82.60;;;;;;5009785;28;20029;-81
2022/06/21 10:48:47;;;;;;;5.72;2.15;;;25.70;81.00;;;;;;5022203;28;20026;-82
2022/06/21 10:51:41;;;;;;;4.45;2.25;;;25.80;81.30;;;;;;5031355;28;20035;-82
2022/06/21 10:54:31;;;;;;;5.85;2.00;;;25.80;81.50;;;;;;5017107;28;20030;-85
2022/06/21 10:57:14;;;;;;;;;;;25.90;81.10;;;;;;5015265;28;20142;-83
2022/06/21 11:02:46;;;;;;;5.05;2.42;;;25.60;81.70;;;;;;5016026;28;20638;-82
2022/06/21 11:05:33;;;;;;;5.88;2.63;;;25.40;82.30;;;;;;5014341;28;20018;-83
2022/06/21 11:08:37;;;;;;;5.57;2.40;;;25.30;83.30;;;;;;5002927;28;20125;-82
2022/06/21 11:11:21;;;;;;;6.25;2.40;;;25.40;83.00;;;;;;5005941;28;20093;-81
2022/06/21 11:14:05;;;;;;;5.20;2.70;;;25.50;82.70;;;;;;4997545;28;20030;-82
2022/06/21 11:16:46;;;;;;;5.80;2.47;;;25.50;83.00;;;;;;5028447;28;20037;-83
2022/06/21 11:19:38;;;;;;;4.20;2.55;;;25.40;83.00;;;;;;5029188;28;20046;-81
2022/06/21 11:22:28;;;;;;;4.97;2.40;;;25.60;83.40;;;;;;5009017;28;20022;-82
2022/06/21 11:24:56;;;;;;;4.07;2.42;;;25.80;83.10;;;;;;5013857;28;20022;-82
2022/06/21 11:27:37;;;;;;;8.27;2.65;;;25.90;82.80;;;;;;5017090;28;20509;-82
2022/06/21 11:30:23;;;;;;;3.70;2.40;;;26.10;82.70;;;;;;5007300;28;20034;-82
2022/06/21 11:33:07;;;;;;;5.10;2.40;;;26.10;82.30;;;;;;5010104;28;20657;-82
2022/06/21 11:35:36;;;;;;;7.53;2.40;;;26.00;83.00;;;;;;5030478;28;20058;-81
2022/06/21 11:38:49;;;;;;;7.55;3.47;;;26.10;82.90;;;;;;5015842;28;20504;-83
2022/06/21 11:42:05;;;;;;;5.65;2.22;;;26.10;82.80;;;;;;4942975;29;20098;-82
2022/06/21 11:44:55;;;;;;;4.78;2.90;;;26.00;83.10;;;;;;4942082;29;20030;-81
2022/06/21 11:47:54;;;;;;;7.38;3.00;;;25.90;83.30;;;;;;5013833;28;20581;-83
2022/06/21 11:50:27;;;;;;;4.78;2.97;;;25.90;84.10;;;;;;5012108;28;20281;-82
2022/06/21 11:53:30;;;;;;;4.60;2.50;;;25.90;84.30;;;;;;5019077;28;20375;-82
2022/06/21 11:56:18;;;;;;;4.82;2.58;;;26.00;84.40;;;;;;5008865;28;20026;-84
2022/06/21 11:58:52;;;;;;;6.18;3.15;;;25.90;84.30;;;;;;5009476;28;20414;-81
2022/06/21 12:01:33;;;;;;;6.95;2.92;;;26.00;84.30;;;;;;5014472;28;20526;-80
2022/06/21 12:04:17;;;;;;;5.15;2.75;;;25.90;84.50;;;;;;5012834;28;20049;-81
2022/06/21 12:06:52;;;;;;;10.45;3.63;;;26.00;84.70;;;;;;5026289;28;20034;-81
2022/06/21 12:09:35;;;;;;;5.93;2.97;;;26.10;84.60;;;;;;5011007;28;20026;-81
2022/06/21 12:12:19;;;;;;;7.13;2.90;;;26.10;85.30;;;;;;5012620;28;20026;-80
2022/06/21 12:15:07;;;;;;;5.78;3.13;;;26.20;84.90;;;;;;5006134;28;20403;-82
2022/06/21 12:17:50;;;;;;;5.50;3.03;;;26.10;84.20;;;;;;5003114;28;20057;-82
2022/06/21 12:20:39;;;;;;;6.70;3.13;;;26.20;84.30;;;;;;5011861;28;20033;-81
2022/06/21 12:23:35;;;;;;;7.38;3.20;;;26.20;84.00;;;;;;5010044;28;20123;-81
2022/06/21 12:26:02;;;;;;;5.07;3.00;;;26.40;83.80;;;;;;5007382;28;20045;-81
2022/06/21 12:28:35;;;;;;;4.47;2.42;;;26.70;84.00;;;;;;5012856;28;20037;-84
2022/06/21 12:31:11;;;;;;;6.07;2.78;;;26.90;82.90;;;;;;5021330;28;20029;-82
2022/06/21 12:33:38;;;;;;;6.50;3.40;;;27.10;82.30;;;;;;5008197;28;20030;-82
2022/06/21 12:36:13;;;;;;;6.53;3.00;;;27.30;82.20;;;;;;5027377;28;20548;-81
2022/06/21 12:38:43;;;;;;;4.53;3.00;;;27.40;82.40;;;;;;5006519;28;20022;-82
2022/06/21 12:41:48;;;;;;;4.88;2.92;;;27.50;81.70;;;;;;5012920;28;20049;-81
2022/06/21 12:44:26;;;;;;;6.80;3.10;;;27.50;81.10;;;;;;5005756;28;20032;-80
2022/06/21 12:47:19;;;;;;;5.90;2.88;;;27.60;81.90;;;;;;5017875;28;20466;-82
2022/06/21 12:50:04;;;;;;;4.05;2.95;;;27.70;81.30;;;;;;5010468;28;20033;-82
2022/06/21 12:52:45;;;;;;;8.00;3.10;;;27.60;80.50;;;;;;5022628;28;20030;-81
2022/06/21 12:55:17;;;;;;;5.38;2.90;;;27.60;80.10;;;;;;5010215;28;20036;-82
2022/06/21 12:58:04;;;;;;;6.00;3.22;;;27.60;80.60;;;;;;5010978;28;20034;-80
2022/06/21 13:00:41;;;;;;;5.57;3.38;;;27.70;81.10;;;;;;5020397;28;20026;-82
2022/06/21 13:03:35;;;;;;;8.60;6.35;;;27.80;80.50;;;;;;5013920;28;20026;-80
2022/06/21 13:06:09;;;;;;;6.00;3.50;;;27.80;79.70;;;;;;5033115;28;20093;-81
2022/06/21 13:09:12;;;;;;;4.40;3.15;;;27.90;79.70;;;;;;5013972;28;20076;-81
2022/06/21 13:12:08;;;;;;;5.43;2.97;;;27.80;80.20;;;;;;5045921;28;20034;-82
2022/06/21 13:14:57;;;;;;;5.45;2.90;;;27.80;80.20;;;;;;5029748;28;20638;-82
2022/06/21 13:17:28;;;;;;;3.67;2.80;;;27.80;80.00;;;;;;5018587;28;20045;-82
2022/06/21 13:20:12;;;;;;;5.93;3.33;;;27.70;80.00;;;;;;5040260;28;20038;-80
2022/06/21 13:22:52;;;;;;;5.15;2.83;;;27.70;80.80;;;;;;5023976;28;20061;-81
2022/06/21 13:25:27;;;;;;;6.38;2.90;;;27.80;80.00;;;;;;5036328;28;20018;-81
2022/06/21 13:28:02;;;;;;;5.78;3.58;;;27.80;80.00;;;;;;5025140;28;20037;-80
2022/06/21 13:30:38;;;;;;;5.90;3.40;;;27.80;79.40;;;;;;5030337;28;20026;-81
2022/06/21 13:33:23;;;;;;;5.22;2.70;;;27.80;79.50;;;;;;5026108;28;20030;-81
2022/06/21 13:36:10;;;;;;;5.95;3.08;;;27.90;79.60;;;;;;5022689;28;20065;-82
2022/06/21 13:38:55;;;;;;;7.05;3.20;;;28.00;79.40;;;;;;5027614;28;20053;-82
2022/06/21 13:44:41;;;;;;;5.20;3.10;;;28.20;79.40;;;;;;5027723;28;20057;-82
2022/06/21 13:47:52;;;;;;;5.80;3.30;;;28.20;79.00;;;;;;5033702;28;20106;-82
2022/06/21 13:51:05;;;;;;;9.57;4.25;;;28.20;78.80;;;;;;5025292;28;20030;-81
2022/06/21 13:54:05;;;;;;;4.88;3.17;;;28.00;78.80;;;;;;5010001;28;20054;-82
2022/06/21 13:56:44;;;;;;;6.72;3.38;;;28.00;79.00;;;;;;5038591;28;20045;-81
2022/06/21 13:59:24;;;;;;;4.78;3.03;;;28.00;78.70;;;;;;5031818;28;20250;-82
2022/06/21 14:02:16;;;;;;;7.55;3.15;;;27.90;78.50;;;;;;5026189;28;20014;-80